createdAt,value
2023-02-15T00:02:06.372Z,39.22
2023-02-15T00:04:49.325Z,45.25
2023-02-15T00:07:18.286Z,43.67
2023-02-15T00:09:49.889Z,39.70
2023-02-15T00:12:18.211Z,36.95
2023-02-15T00:14:46.126Z,44.65
2023-02-15T00:17:14.102Z,36.33
2023-02-15T00:19:42.097Z,35.45
2023-02-15T00:22:10.549Z,43.63
2023-02-15T00:24:38.503Z,40.05
2023-02-15T00:27:06.769Z,42.00
2023-02-15T00:29:34.721Z,40.80
2023-02-15T00:32:02.754Z,45.30
2023-02-15T00:34:30.678Z,40.78
2023-02-15T00:36:58.425Z,40.42
2023-02-15T00:39:26.967Z,39.10
2023-02-15T00:41:54.719Z,50.63
2023-02-15T00:44:22.938Z,43.20
2023-02-15T00:46:51.043Z,48.38
2023-02-15T00:49:19.456Z,46.67
2023-02-15T00:51:47.529Z,46.75
2023-02-15T00:54:15.482Z,42.25
2023-02-15T00:56:43.584Z,52.58
2023-02-15T00:59:12.088Z,49.40
2023-02-15T01:01:39.799Z,56.50
2023-02-15T01:04:07.938Z,52.97
2023-02-15T01:06:35.751Z,56.03
2023-02-15T01:09:04.358Z,57.58
2023-02-15T01:11:32.156Z,59.55
2023-02-15T01:14:00.249Z,50.03
2023-02-15T01:16:29.234Z,55.80
2023-02-15T01:18:57.782Z,64.78
2023-02-15T01:21:26.502Z,56.55
2023-02-15T01:23:54.661Z,47.83
2023-02-15T01:26:22.937Z,50.75
2023-02-15T01:28:50.999Z,56.25
2023-02-15T01:31:20.278Z,59.80
2023-02-15T01:33:49.361Z,51.45
2023-02-15T01:36:18.702Z,52.70
2023-02-15T01:38:47.215Z,62.53
2023-02-15T01:41:21.489Z,62.67
2023-02-15T01:43:57.096Z,64.88
2023-02-15T01:46:47.431Z,56.75
2023-02-15T01:49:16.985Z,68.97
2023-02-15T01:51:46.219Z,64.88
2023-02-15T01:54:26.269Z,69.63
2023-02-15T01:56:54.601Z,64.00
2023-02-15T01:59:23.703Z,68.80
2023-02-15T02:01:53.471Z,76.47
2023-02-15T02:04:27.276Z,73.32
2023-02-15T02:06:55.289Z,68.20
2023-02-15T02:09:23.397Z,70.25
2023-02-15T02:11:51.258Z,68.63
2023-02-15T02:14:19.255Z,66.32
2023-02-15T02:16:55.012Z,74.63
2023-02-15T02:19:56.370Z,69.47
2023-02-15T02:23:01.845Z,68.05
2023-02-15T02:26:00.172Z,68.85
2023-02-15T02:28:55.593Z,77.95
2023-02-15T02:31:55.951Z,71.90
2023-02-15T02:34:50.865Z,100.60
2023-02-15T02:37:32.558Z,127.35
2023-02-15T02:40:14.807Z,102.93
2023-02-15T02:42:46.539Z,138.93
2023-02-15T02:45:37.804Z,129.20
2023-02-15T02:48:12.005Z,124.55
2023-02-15T02:50:40.757Z,127.93
2023-02-15T02:53:08.845Z,145.00
2023-02-15T02:55:48.339Z,94.35
2023-02-15T02:58:24.239Z,92.63
2023-02-15T03:01:07.924Z,106.93
2023-02-15T03:03:46.067Z,106.30
2023-02-15T03:06:51.498Z,111.75
2023-02-15T03:09:35.961Z,94.82
2023-02-15T03:12:05.043Z,89.35
2023-02-15T03:14:35.630Z,96.35
2023-02-15T03:17:04.018Z,87.10
2023-02-15T03:19:36.167Z,87.65
2023-02-15T03:22:20.781Z,90.40
2023-02-15T03:25:11.473Z,87.50
2023-02-15T03:27:47.534Z,82.05
2023-02-15T03:30:15.740Z,84.95
2023-02-15T03:32:43.836Z,87.07
2023-02-15T03:35:11.905Z,91.70
2023-02-15T03:37:41.063Z,89.22
2023-02-15T03:40:41.330Z,88.68
2023-02-15T03:43:29.193Z,84.78
2023-02-15T03:46:00.300Z,77.07
2023-02-15T03:48:51.036Z,86.60
2023-02-15T03:51:35.744Z,82.78
2023-02-15T03:54:08.532Z,78.85
2023-02-15T03:56:41.589Z,86.10
2023-02-15T03:59:28.262Z,85.38
2023-02-15T04:02:29.852Z,85.05
2023-02-15T04:04:57.601Z,88.13
2023-02-15T04:07:25.602Z,91.32
2023-02-15T04:10:12.321Z,89.97
2023-02-15T04:12:40.344Z,84.60
2023-02-15T04:15:28.274Z,78.97
2023-02-15T04:17:56.549Z,79.22
2023-02-15T04:20:42.605Z,76.60
2023-02-15T04:23:28.668Z,73.45
2023-02-15T04:25:56.751Z,67.30
2023-02-15T04:28:25.110Z,65.43
2023-02-15T04:30:52.858Z,66.47
2023-02-15T04:33:20.673Z,67.65
2023-02-15T04:35:48.506Z,74.25
2023-02-15T04:38:16.496Z,76.43
2023-02-15T04:40:44.734Z,74.22
2023-02-15T04:43:12.826Z,73.22
2023-02-15T04:45:40.626Z,59.67
2023-02-15T04:48:08.709Z,73.80
2023-02-15T04:50:36.681Z,71.85
2023-02-15T04:53:04.771Z,75.05
2023-02-15T04:55:32.491Z,68.80
2023-02-15T04:58:00.518Z,74.20
2023-02-15T05:00:28.906Z,67.93
2023-02-15T05:02:56.606Z,71.10
2023-02-15T05:05:25.270Z,72.15
2023-02-15T05:07:53.498Z,76.45
2023-02-15T05:10:22.028Z,76.85
2023-02-15T05:12:49.786Z,75.80
2023-02-15T05:15:17.875Z,77.05
2023-02-15T05:17:45.833Z,76.78
2023-02-15T05:20:13.670Z,73.75
2023-02-15T05:22:42.320Z,75.63
2023-02-15T05:25:28.809Z,70.13
2023-02-15T05:28:15.008Z,73.43
2023-02-15T05:30:43.617Z,74.07
2023-02-15T05:33:12.021Z,73.65
2023-02-15T05:35:40.053Z,71.78
2023-02-15T05:38:08.089Z,71.40
2023-02-15T05:40:35.944Z,65.82
2023-02-15T05:43:04.002Z,61.72
2023-02-15T05:45:32.164Z,61.22
2023-02-15T05:47:59.959Z,61.83
2023-02-15T05:50:28.042Z,62.67
2023-02-15T05:52:56.293Z,67.22
2023-02-15T05:55:24.538Z,68.35
2023-02-15T05:57:52.661Z,69.50
2023-02-15T06:00:21.140Z,66.45
2023-02-15T06:02:49.517Z,72.50
2023-02-15T06:05:17.441Z,68.13
2023-02-15T06:07:46.256Z,63.30
2023-02-15T06:10:14.271Z,64.70
2023-02-15T06:12:42.295Z,67.53
2023-02-15T06:15:10.618Z,63.70
2023-02-15T06:17:38.476Z,60.50
2023-02-15T06:20:07.219Z,67.50
2023-02-15T06:22:34.941Z,67.05
2023-02-15T06:25:03.136Z,73.80
2023-02-15T06:27:33.011Z,76.60
2023-02-15T06:30:00.802Z,72.63
2023-02-15T06:32:28.960Z,72.20
2023-02-15T06:34:56.702Z,75.63
2023-02-15T06:37:24.646Z,67.95
2023-02-15T06:39:52.762Z,73.70
2023-02-15T06:42:20.824Z,67.15
2023-02-15T06:44:49.133Z,67.03
2023-02-15T06:47:16.888Z,66.18
2023-02-15T06:49:44.686Z,48.05
2023-02-15T06:52:14.247Z,62.67
2023-02-15T06:54:42.229Z,58.45
2023-02-15T06:57:11.071Z,61.15
2023-02-15T06:59:38.908Z,50.78
2023-02-15T07:02:07.588Z,52.90
2023-02-15T07:04:36.006Z,51.78
2023-02-15T07:07:03.920Z,55.92
2023-02-15T07:09:32.112Z,52.50
2023-02-15T07:12:18.055Z,52.38
2023-02-15T07:14:45.918Z,48.70
2023-02-15T07:17:32.827Z,45.40
2023-02-15T07:20:01.747Z,40.20
2023-02-15T07:22:29.516Z,42.33
2023-02-15T07:24:57.265Z,54.47
2023-02-15T07:27:25.318Z,52.63
2023-02-15T07:29:53.303Z,61.33
2023-02-15T07:32:21.712Z,57.05
2023-02-15T07:34:49.679Z,52.15
2023-02-15T07:37:18.448Z,47.13
2023-02-15T07:39:46.419Z,49.42
2023-02-15T07:42:14.067Z,55.10
2023-02-15T07:44:41.980Z,51.33
2023-02-15T07:47:09.957Z,61.60
2023-02-15T07:49:38.091Z,56.00
2023-02-15T07:52:06.312Z,56.20
2023-02-15T07:54:34.399Z,56.42
2023-02-15T07:57:03.487Z,59.85
2023-02-15T07:59:31.224Z,61.55
2023-02-15T08:01:59.366Z,57.00
2023-02-15T08:04:27.157Z,60.33
2023-02-15T08:06:56.057Z,64.95
2023-02-15T08:09:24.272Z,60.15
2023-02-15T08:11:52.235Z,64.30
2023-02-15T08:14:22.015Z,56.20
2023-02-15T08:16:53.696Z,66.60
2023-02-15T08:19:26.616Z,66.07
2023-02-15T08:21:56.269Z,67.50
2023-02-15T08:24:25.695Z,66.80
2023-02-15T08:26:53.525Z,64.90
2023-02-15T08:29:23.803Z,64.45
2023-02-15T08:31:54.325Z,65.55
2023-02-15T08:34:22.728Z,68.88
2023-02-15T08:36:50.318Z,66.45
2023-02-15T08:39:19.008Z,65.13
2023-02-15T08:41:47.473Z,56.25
2023-02-15T08:44:17.021Z,56.78
2023-02-15T08:46:46.050Z,45.80
2023-02-15T08:49:16.961Z,44.42
2023-02-15T08:51:45.607Z,39.83
2023-02-15T08:54:18.462Z,38.92
2023-02-15T08:56:46.513Z,40.75
2023-02-15T08:59:19.117Z,40.92
2023-02-15T09:04:17.110Z,35.05
2023-02-15T09:06:48.321Z,37.30
2023-02-15T09:09:17.731Z,38.22
2023-02-15T09:11:46.730Z,36.70
2023-02-15T09:14:17.009Z,35.45
2023-02-15T09:16:50.312Z,32.08
2023-02-15T09:19:19.328Z,30.38
2023-02-15T09:21:47.185Z,29.40
2023-02-15T09:24:16.726Z,36.42
2023-02-15T09:26:46.741Z,32.15
2023-02-15T09:29:14.875Z,31.75
2023-02-15T09:31:47.957Z,28.17
2023-02-15T09:34:19.886Z,35.10
2023-02-15T09:36:48.321Z,26.33
2023-02-15T09:39:17.084Z,31.10
2023-02-15T09:41:57.164Z,29.17
2023-02-15T09:44:37.382Z,29.30
2023-02-15T09:47:43.372Z,33.05
2023-02-15T09:50:27.900Z,31.60
2023-02-15T09:53:31.717Z,32.60
2023-02-15T09:56:38.796Z,26.02
2023-02-15T09:59:35.934Z,27.23
2023-02-15T10:02:29.844Z,27.30
2023-02-15T10:05:03.939Z,31.10
2023-02-15T10:07:37.818Z,29.42
2023-02-15T10:10:21.517Z,31.90
2023-02-15T10:12:57.468Z,31.20
2023-02-15T10:15:53.336Z,31.63
2023-02-15T10:18:27.343Z,30.25
2023-02-15T10:21:04.926Z,35.28
2023-02-15T10:23:55.963Z,35.20
2023-02-15T10:26:28.516Z,31.65
2023-02-15T10:29:33.458Z,33.58
2023-02-15T10:32:19.827Z,28.23
2023-02-15T10:34:57.831Z,33.45
2023-02-15T10:37:50.419Z,33.95
2023-02-15T10:40:50.655Z,24.73
2023-02-15T10:43:34.203Z,30.05
2023-02-15T10:46:13.711Z,29.77
2023-02-15T10:49:00.608Z,29.15
2023-02-15T10:51:37.206Z,30.13
2023-02-15T10:54:14.129Z,30.05
2023-02-15T10:57:15.704Z,29.40
2023-02-15T10:59:49.610Z,28.77
2023-02-15T11:02:27.162Z,30.92
2023-02-15T11:04:55.019Z,30.13
2023-02-15T11:07:27.229Z,30.92
2023-02-15T11:10:04.187Z,27.70
2023-02-15T11:12:32.832Z,26.08
2023-02-15T11:15:11.924Z,29.85
2023-02-15T11:17:42.542Z,28.27
2023-02-15T11:20:48.892Z,28.08
2023-02-15T11:23:17.863Z,27.48
2023-02-15T11:25:48.598Z,28.20
2023-02-15T11:28:40.984Z,24.80
2023-02-15T11:31:19.204Z,21.05
2023-02-15T11:34:07.644Z,23.98
2023-02-15T11:36:39.273Z,21.75
2023-02-15T11:39:17.838Z,19.77
2023-02-15T11:41:56.913Z,25.27
2023-02-15T11:44:37.558Z,28.60
2023-02-15T11:47:12.716Z,25.48
2023-02-15T11:49:40.597Z,28.02
2023-02-15T11:52:09.942Z,24.27
2023-02-15T11:54:39.292Z,27.77
2023-02-15T11:57:17.398Z,26.92
2023-02-15T11:59:49.689Z,27.67
2023-02-15T12:05:00.133Z,23.10
2023-02-15T12:07:33.690Z,20.10
2023-02-15T12:10:18.583Z,24.20
2023-02-15T12:12:46.894Z,25.17
2023-02-15T12:15:15.996Z,27.92
2023-02-15T12:17:54.610Z,27.80
2023-02-15T12:20:35.601Z,26.38
2023-02-15T12:23:12.948Z,30.10
2023-02-15T12:25:56.104Z,27.83
2023-02-15T12:28:27.371Z,29.55
2023-02-15T12:30:59.084Z,30.55
2023-02-15T12:33:32.031Z,27.73
2023-02-15T12:36:11.755Z,27.52
2023-02-15T12:38:40.712Z,28.90
2023-02-15T12:41:36.018Z,27.92
2023-02-15T12:44:21.932Z,27.45
2023-02-15T12:47:10.380Z,28.15
2023-02-15T12:49:39.000Z,29.45
2023-02-15T12:52:28.738Z,26.27
2023-02-15T12:54:57.985Z,28.38
2023-02-15T12:57:33.688Z,26.30
2023-02-15T13:00:08.254Z,30.90
2023-02-15T13:02:44.507Z,26.92
2023-02-15T13:05:31.175Z,28.98
2023-02-15T13:08:02.310Z,28.75
2023-02-15T13:10:37.549Z,22.30
2023-02-15T13:13:22.018Z,28.45
2023-02-15T13:15:51.672Z,30.25
2023-02-15T13:18:27.916Z,29.27
2023-02-15T13:20:56.626Z,30.02
2023-02-15T13:23:29.580Z,28.65
2023-02-15T13:26:01.416Z,28.98
2023-02-15T13:28:39.100Z,33.20
2023-02-15T13:31:24.373Z,31.17
2023-02-15T13:34:04.461Z,27.80
2023-02-15T13:36:43.116Z,30.73
2023-02-15T13:39:19.219Z,37.75
2023-02-15T13:42:18.474Z,39.08
2023-02-15T13:45:10.893Z,49.05
2023-02-15T13:48:16.381Z,48.45
2023-02-15T13:50:57.849Z,35.75
2023-02-15T13:54:00.627Z,25.42
2023-02-15T13:56:57.864Z,29.30
2023-02-15T13:59:44.211Z,31.85
2023-02-15T14:02:42.830Z,29.45
2023-02-15T14:05:35.609Z,31.48
2023-02-15T14:10:53.471Z,29.20
2023-02-15T14:13:32.650Z,36.67
2023-02-15T14:16:12.400Z,39.22
2023-02-15T14:19:26.654Z,35.80
2023-02-15T14:22:00.367Z,33.38
2023-02-15T14:24:47.824Z,39.30
2023-02-15T14:27:23.889Z,35.67
2023-02-15T14:30:00.851Z,40.45
2023-02-15T14:32:34.037Z,45.45
2023-02-15T14:35:03.408Z,42.75
2023-02-15T14:37:46.582Z,47.42
2023-02-15T14:40:53.884Z,55.72
2023-02-15T14:43:25.209Z,49.50
2023-02-15T14:46:00.678Z,52.20
2023-02-15T14:49:06.614Z,43.97
2023-02-15T14:51:47.546Z,44.40
2023-02-15T14:54:21.348Z,49.47
2023-02-15T14:57:04.832Z,52.15
2023-02-15T14:59:59.786Z,36.03
2023-02-15T15:02:42.369Z,29.75
2023-02-15T15:07:56.897Z,46.10
2023-02-15T15:10:24.822Z,36.60
2023-02-15T15:12:56.443Z,40.25
2023-02-15T15:15:35.929Z,42.50
2023-02-15T15:18:11.727Z,58.60
2023-02-15T15:20:43.189Z,57.95
2023-02-15T15:23:17.136Z,61.40
2023-02-15T15:25:47.034Z,72.05
2023-02-15T15:28:36.326Z,73.13
2023-02-15T15:31:18.856Z,73.78
2023-02-15T15:34:15.839Z,88.22
2023-02-15T15:37:04.542Z,91.05
2023-02-15T15:40:00.834Z,96.28
2023-02-15T15:42:50.279Z,89.15
2023-02-15T15:45:26.379Z,94.07
2023-02-15T15:48:28.502Z,92.97
2023-02-15T15:51:13.694Z,90.93
2023-02-15T15:53:50.605Z,100.57
2023-02-15T15:56:33.563Z,112.00
2023-02-15T15:59:07.394Z,100.13
2023-02-15T16:01:41.795Z,100.32
2023-02-15T16:04:38.145Z,101.95
2023-02-15T16:07:18.591Z,92.72
2023-02-15T16:10:01.036Z,97.78
2023-02-15T16:15:15.376Z,125.63
2023-02-15T16:17:46.359Z,89.38
2023-02-15T16:20:20.177Z,129.55
2023-02-15T16:22:49.787Z,141.00
2023-02-15T16:25:39.121Z,131.30
2023-02-15T16:28:12.385Z,136.05
2023-02-15T16:30:41.189Z,115.70
2023-02-15T16:33:12.694Z,112.85
2023-02-15T16:36:04.658Z,111.50
2023-02-15T16:38:44.852Z,113.20
2023-02-15T16:41:25.656Z,95.47
2023-02-15T16:43:53.951Z,94.18
2023-02-15T16:46:53.633Z,94.60
2023-02-15T16:49:30.149Z,97.97
2023-02-15T16:52:09.786Z,93.65
2023-02-15T16:54:37.986Z,95.07
2023-02-15T16:57:07.749Z,113.63
2023-02-15T16:59:47.847Z,104.47
2023-02-15T17:02:43.020Z,130.05
2023-02-15T17:05:17.312Z,116.80
2023-02-15T17:08:12.692Z,106.68
2023-02-15T17:10:43.205Z,103.47
2023-02-15T17:13:16.539Z,122.03
2023-02-15T17:16:04.883Z,130.95
2023-02-15T17:18:38.968Z,100.43
2023-02-15T17:21:20.774Z,82.13
2023-02-15T17:23:50.616Z,52.22
2023-02-15T17:26:21.211Z,73.50
2023-02-15T17:29:33.024Z,92.20
2023-02-15T17:32:04.922Z,71.45
2023-02-15T17:35:11.218Z,62.65
2023-02-15T17:37:39.121Z,67.30
2023-02-15T17:40:30.324Z,82.03
2023-02-15T17:42:58.115Z,80.10
2023-02-15T17:45:37.195Z,91.05
2023-02-15T17:48:06.139Z,72.55
2023-02-15T17:50:35.134Z,71.85
2023-02-15T17:53:03.248Z,77.38
2023-02-15T17:55:36.961Z,74.10
2023-02-15T17:58:07.810Z,82.30
2023-02-15T18:00:56.718Z,80.75
2023-02-15T18:03:44.096Z,71.85
2023-02-15T18:06:34.042Z,97.22
2023-02-15T18:09:20.271Z,86.15
2023-02-15T18:11:50.078Z,97.30
2023-02-15T18:14:18.215Z,98.93
2023-02-15T18:16:47.479Z,105.68
2023-02-15T18:19:21.113Z,101.55
2023-02-15T18:21:49.460Z,105.10
2023-02-15T18:24:21.865Z,102.60
2023-02-15T18:26:50.067Z,97.22
2023-02-15T18:29:18.426Z,97.25
2023-02-15T18:31:47.737Z,103.72
2023-02-15T18:34:24.882Z,106.05
2023-02-15T18:36:53.011Z,93.22
2023-02-15T18:39:27.397Z,99.47
2023-02-15T18:41:58.227Z,103.93
2023-02-15T18:44:28.517Z,104.38
2023-02-15T18:46:57.848Z,103.15
2023-02-15T18:49:27.026Z,104.97
2023-02-15T18:52:19.528Z,103.35
2023-02-15T18:54:47.341Z,114.50
2023-02-15T18:57:16.145Z,82.63
2023-02-15T18:59:44.236Z,98.25
2023-02-15T19:02:14.327Z,111.22
2023-02-15T19:04:42.523Z,95.40
2023-02-15T19:07:30.312Z,84.30
2023-02-15T19:09:59.805Z,93.90
2023-02-15T19:12:28.654Z,96.95
2023-02-15T19:14:57.188Z,89.75
2023-02-15T19:17:25.473Z,82.88
2023-02-15T19:19:53.661Z,98.38
2023-02-15T19:22:29.849Z,92.40
2023-02-15T19:24:59.693Z,83.65
2023-02-15T19:27:32.679Z,75.78
2023-02-15T19:30:00.862Z,81.85
2023-02-15T19:32:28.915Z,84.05
2023-02-15T19:34:57.338Z,84.05
2023-02-15T19:37:31.740Z,78.22
2023-02-15T19:39:59.789Z,61.70
2023-02-15T19:42:28.405Z,76.78
2023-02-15T19:44:56.238Z,75.47
2023-02-15T19:47:24.297Z,72.72
2023-02-15T19:49:52.406Z,81.88
2023-02-15T19:52:24.436Z,82.90
2023-02-15T19:54:53.958Z,80.93
2023-02-15T19:57:22.103Z,67.00
2023-02-15T19:59:50.819Z,58.30
2023-02-15T20:02:20.569Z,51.58
2023-02-15T20:04:48.732Z,62.95
2023-02-15T20:07:23.209Z,58.92
2023-02-15T20:09:51.498Z,62.50
2023-02-15T20:12:24.911Z,70.35
2023-02-15T20:14:53.616Z,70.95
2023-02-15T20:17:21.650Z,67.22
2023-02-15T20:19:49.796Z,58.38
2023-02-15T20:22:27.946Z,62.72
2023-02-15T20:24:58.743Z,63.47
2023-02-15T20:27:26.985Z,66.85
2023-02-15T20:29:57.235Z,72.68
2023-02-15T20:32:25.221Z,60.15
2023-02-15T20:34:53.042Z,44.30
2023-02-15T20:37:26.762Z,51.53
2023-02-15T20:39:54.831Z,61.88
2023-02-15T20:42:22.473Z,61.35
2023-02-15T20:44:50.888Z,52.53
2023-02-15T20:47:18.790Z,60.78
2023-02-15T20:49:46.783Z,58.00
2023-02-15T20:52:20.857Z,60.83
2023-02-15T20:54:48.911Z,55.13
2023-02-15T20:57:17.553Z,59.55
2023-02-15T20:59:45.618Z,37.15
2023-02-15T21:02:16.665Z,60.83
2023-02-15T21:04:44.528Z,55.22
2023-02-15T21:07:17.507Z,49.13
2023-02-15T21:09:45.976Z,58.03
2023-02-15T21:12:18.658Z,54.22
2023-02-15T21:14:46.750Z,41.22
2023-02-15T21:17:16.024Z,50.67
2023-02-15T21:19:43.829Z,44.03
2023-02-15T21:22:13.050Z,50.38
2023-02-15T21:24:48.979Z,30.40
2023-02-15T21:27:17.041Z,46.65
2023-02-15T21:29:45.140Z,40.42
2023-02-15T21:32:13.053Z,33.72
2023-02-15T21:34:41.157Z,41.15
2023-02-15T21:37:36.206Z,37.72
2023-02-15T21:40:07.366Z,43.35
2023-02-15T21:42:53.330Z,42.38
2023-02-15T21:45:39.157Z,44.83
2023-02-15T21:48:07.500Z,32.75
2023-02-15T21:50:54.354Z,42.92
2023-02-15T21:53:33.210Z,47.83
2023-02-15T21:56:03.190Z,42.25
2023-02-15T21:58:32.924Z,31.58
2023-02-15T22:01:01.023Z,35.92
2023-02-15T22:03:34.332Z,34.08
2023-02-15T22:06:02.584Z,32.03
2023-02-15T22:08:30.930Z,34.72
2023-02-15T22:10:59.017Z,35.92
2023-02-15T22:13:30.758Z,34.38
2023-02-15T22:18:28.269Z,21.25
2023-02-15T22:20:56.637Z,27.15
2023-02-15T22:23:24.525Z,34.85
2023-02-15T22:26:00.194Z,36.95
2023-02-15T22:28:36.606Z,33.33
2023-02-15T22:31:05.267Z,35.53
2023-02-15T22:33:34.515Z,36.63
2023-02-15T22:36:02.421Z,30.75
2023-02-15T22:38:30.404Z,30.50
2023-02-15T22:41:04.578Z,32.63
2023-02-15T22:43:40.818Z,28.83
2023-02-15T22:46:15.071Z,30.67
2023-02-15T22:48:43.908Z,35.65
2023-02-15T22:51:30.287Z,37.88
2023-02-15T22:53:58.182Z,36.80
2023-02-15T22:57:01.472Z,38.65
2023-02-15T22:59:30.081Z,38.05
2023-02-15T23:01:57.962Z,38.72
2023-02-15T23:04:27.850Z,42.83
2023-02-15T23:06:58.889Z,39.83
2023-02-15T23:09:26.866Z,37.83
2023-02-15T23:11:55.227Z,41.35
2023-02-15T23:14:23.302Z,43.92
2023-02-15T23:16:51.561Z,44.97
2023-02-15T23:19:19.636Z,43.88
2023-02-15T23:21:47.341Z,45.20
2023-02-15T23:24:18.073Z,32.15
2023-02-15T23:26:46.139Z,38.58
2023-02-15T23:29:19.073Z,34.45
2023-02-15T23:31:49.635Z,44.40
2023-02-15T23:34:18.666Z,39.53
2023-02-15T23:36:46.520Z,28.85
2023-02-15T23:39:39.056Z,34.17
2023-02-15T23:42:15.164Z,24.48
2023-02-15T23:44:43.653Z,29.10
2023-02-15T23:47:45.091Z,26.13
2023-02-15T23:50:27.675Z,21.30
2023-02-15T23:52:56.416Z,35.60
2023-02-15T23:55:25.554Z,37.38
2023-02-15T23:57:54.084Z,42.75
